Time;durP1;ratioP1;P1;durP2;ratioP2;P2;SDS_P1;SDS_P2;PMS_P1;PMS_P2;Temp;Humidity;BMP_temperature;BMP_pressure;BME280_temperature;BME280_humidity;BME280_pressure;Samples;Min_cycle;Max_cycle;Signal;HPM_P1;HPM_P2
2023/10/04 03:13:27;;;;;;;1999.90;999.90;;;;;;;;;;4951557;28;20461;-68
2023/10/04 03:16:12;;;;;;;1999.90;999.90;;;;;;;;;;4956703;28;20219;-68
2023/10/04 03:18:58;;;;;;;1999.90;999.90;;;;;;;;;;4959948;28;20232;-68
2023/10/04 03:21:45;;;;;;;1999.90;999.90;;;;;;;;;;4948280;29;20284;-68
2023/10/04 03:24:30;;;;;;;1999.90;999.90;;;;;;;;;;4936183;29;20212;-68
2023/10/04 03:27:15;;;;;;;1999.90;999.90;;;;;;;;;;4950248;29;20240;-69
2023/10/04 03:30:03;;;;;;;1999.90;999.90;;;;;;;;;;4943572;29;20582;-69
2023/10/04 03:32:52;;;;;;;1999.90;999.90;;;;;;;;;;4931098;29;20312;-68
2023/10/04 03:35:39;;;;;;;1999.90;999.90;;;;;;;;;;4929656;29;20263;-68
2023/10/04 03:38:25;;;;;;;1999.90;999.90;;;;;;;;;;4939015;29;20283;-69
2023/10/04 03:41:10;;;;;;;1999.90;999.90;;;;;;;;;;4954770;28;20228;-67
2023/10/04 03:43:55;;;;;;;1999.90;999.90;;;;;;;;;;4953331;29;20338;-69
2023/10/04 03:46:43;;;;;;;1999.90;999.90;;;;;;;;;;4929495;29;20275;-68
2023/10/04 03:49:28;;;;;;;1999.90;999.90;;;;;;;;;;4935434;29;20333;-68
2023/10/04 03:52:13;;;;;;;1999.90;999.90;;;;;;;;;;4952714;28;20263;-68
2023/10/04 03:54:59;;;;;;;1999.90;999.90;;;;;;;;;;4947116;29;20232;-68
2023/10/04 03:57:43;;;;;;;1999.90;999.90;;;;;;;;;;4929707;29;20222;-68
2023/10/04 04:00:30;;;;;;;1999.90;999.90;;;;;;;;;;4935094;29;20758;-68
2023/10/04 04:03:16;;;;;;;1999.90;999.90;;;;;;;;;;4944842;29;20226;-68
2023/10/04 04:06:01;;;;;;;1999.90;999.90;;;;;;;;;;4945010;29;20283;-68
2023/10/04 04:08:46;;;;;;;1999.90;999.90;;;;;;;;;;4929021;29;20215;-69
2023/10/04 04:11:33;;;;;;;1999.90;999.90;;;;;;;;;;4925607;29;20244;-68
2023/10/04 04:14:19;;;;;;;1999.90;999.90;;;;;;;;;;4934210;29;20219;-68
2023/10/04 04:17:05;;;;;;;1999.90;999.90;;;;;;;;;;4933867;29;20344;-68
2023/10/04 04:19:52;;;;;;;1999.90;999.90;;;;;;;;;;4927728;29;20230;-68
2023/10/04 04:22:37;;;;;;;1999.90;999.90;;;;;;;;;;4928395;29;20285;-68
2023/10/04 04:25:23;;;;;;;1999.90;999.90;;;;;;;;;;4931855;29;20583;-68
2023/10/04 04:28:11;;;;;;;1999.90;999.90;;;;;;;;;;4927009;29;20214;-68
2023/10/04 04:30:58;;;;;;;1999.90;999.90;;;;;;;;;;4931400;29;20200;-69
2023/10/04 04:33:42;;;;;;;1999.90;999.90;;;;;;;;;;4927795;29;20211;-68
2023/10/04 04:36:31;;;;;;;1999.90;999.90;;;;;;;;;;4934599;29;20337;-68
2023/10/04 04:39:18;;;;;;;1999.90;999.90;;;;;;;;;;4934610;29;20221;-68
2023/10/04 04:42:04;;;;;;;1999.90;999.90;;;;;;;;;;4934693;29;20242;-69
2023/10/04 04:44:50;;;;;;;1999.90;999.90;;;;;;;;;;4929165;29;20209;-68
2023/10/04 04:47:35;;;;;;;1999.90;999.90;;;;;;;;;;4934655;29;20210;-68
2023/10/04 04:50:22;;;;;;;1999.90;999.90;;;;;;;;;;4934546;29;20255;-68
2023/10/04 04:53:11;;;;;;;1999.90;999.90;;;;;;;;;;4934361;29;20234;-68
2023/10/04 04:55:56;;;;;;;1999.90;999.90;;;;;;;;;;4928393;29;20678;-68
2023/10/04 04:58:41;;;;;;;1999.90;999.90;;;;;;;;;;4915818;29;20239;-68
2023/10/04 05:01:31;;;;;;;1999.90;999.90;;;;;;;;;;4915832;29;20220;-68
2023/10/04 05:04:18;;;;;;;1999.90;999.90;;;;;;;;;;4915808;29;20236;-68
2023/10/04 05:07:06;;;;;;;1999.90;999.90;;;;;;;;;;4915641;29;20256;-68
2023/10/04 05:09:53;;;;;;;1999.90;999.90;;;;;;;;;;4934573;29;20203;-68
2023/10/04 05:12:38;;;;;;;1999.90;999.90;;;;;;;;;;4938513;29;20312;-68
2023/10/04 05:15:31;;;;;;;1999.90;999.90;;;;;;;;;;4937784;29;20212;-68
2023/10/04 05:18:17;;;;;;;1999.90;999.90;;;;;;;;;;4935047;29;20211;-68
2023/10/04 05:21:04;;;;;;;1999.90;999.90;;;;;;;;;;4937840;29;20233;-68
2023/10/04 05:23:49;;;;;;;1999.90;999.90;;;;;;;;;;4938286;29;20215;-68
2023/10/04 05:26:37;;;;;;;1999.90;999.90;;;;;;;;;;4937894;29;20221;-68
2023/10/04 05:29:22;;;;;;;1999.90;999.90;;;;;;;;;;4937828;29;20206;-67
2023/10/04 05:32:08;;;;;;;1999.90;999.90;;;;;;;;;;4930261;29;20234;-65
2023/10/04 05:34:53;;;;;;;1999.90;999.90;;;;;;;;;;4932265;29;20205;-68
2023/10/04 05:37:38;;;;;;;1999.90;999.90;;;;;;;;;;4937004;29;20294;-68
2023/10/04 05:40:27;;;;;;;1999.90;999.90;;;;;;;;;;4937112;29;20442;-68
2023/10/04 05:43:15;;;;;;;1999.90;999.90;;;;;;;;;;4937126;29;20229;-67
2023/10/04 05:46:00;;;;;;;1999.90;999.90;;;;;;;;;;4932833;29;20288;-68
2023/10/04 05:48:45;;;;;;;1999.90;999.90;;;;;;;;;;4930098;29;20219;-68
2023/10/04 05:51:30;;;;;;;1999.90;999.90;;;;;;;;;;4937594;29;20257;-68
2023/10/04 05:54:15;;;;;;;1999.90;999.90;;;;;;;;;;4937550;29;20607;-68
2023/10/04 05:57:01;;;;;;;1999.90;999.90;;;;;;;;;;4937602;29;20211;-69
2023/10/04 05:59:48;;;;;;;1999.90;999.90;;;;;;;;;;4937331;29;20592;-68
2023/10/04 06:02:34;;;;;;;1999.90;999.90;;;;;;;;;;4937346;29;20266;-68
2023/10/04 06:05:19;;;;;;;1999.90;999.90;;;;;;;;;;4937139;29;20269;-68
2023/10/04 06:08:06;;;;;;;1999.90;999.90;;;;;;;;;;4937490;29;20218;-68
2023/10/04 06:10:53;;;;;;;1999.90;999.90;;;;;;;;;;4929564;29;20205;-68
2023/10/04 06:13:38;;;;;;;1999.90;999.90;;;;;;;;;;4937279;29;20720;-68
2023/10/04 06:16:24;;;;;;;1999.90;999.90;;;;;;;;;;4929115;29;20290;-68
2023/10/04 06:19:09;;;;;;;1999.90;999.90;;;;;;;;;;4936986;29;20214;-69
2023/10/04 06:21:54;;;;;;;1999.90;999.90;;;;;;;;;;4936387;29;20250;-69
2023/10/04 06:24:39;;;;;;;1999.90;999.90;;;;;;;;;;4936855;29;20308;-68
2023/10/04 06:27:24;;;;;;;1999.90;999.90;;;;;;;;;;4936560;29;20708;-68
2023/10/04 06:30:11;;;;;;;1999.90;999.90;;;;;;;;;;4937091;29;20213;-68
2023/10/04 06:32:59;;;;;;;1999.90;999.90;;;;;;;;;;4930125;29;20769;-69
2023/10/04 06:35:44;;;;;;;1999.90;999.90;;;;;;;;;;4929323;29;20215;-68
2023/10/04 06:38:30;;;;;;;1999.90;999.90;;;;;;;;;;4936068;29;20294;-68
2023/10/04 06:41:14;;;;;;;1999.90;999.90;;;;;;;;;;4935566;29;20766;-68
2023/10/04 06:44:00;;;;;;;1999.90;999.90;;;;;;;;;;4937152;29;20220;-67
2023/10/04 06:46:45;;;;;;;1999.90;999.90;;;;;;;;;;4929233;29;20216;-68
2023/10/04 06:49:31;;;;;;;1999.90;999.90;;;;;;;;;;4933854;29;20276;-69
2023/10/04 06:52:16;;;;;;;1999.90;999.90;;;;;;;;;;4935505;29;20232;-69
2023/10/04 06:55:01;;;;;;;1999.90;999.90;;;;;;;;;;4930548;29;20434;-66
2023/10/04 06:57:47;;;;;;;1999.90;999.90;;;;;;;;;;4934949;29;20212;-68
2023/10/04 07:00:36;;;;;;;1999.90;999.90;;;;;;;;;;4933222;29;20240;-69
2023/10/04 07:03:21;;;;;;;1999.90;999.90;;;;;;;;;;4936278;29;20228;-68
2023/10/04 07:06:08;;;;;;;1999.90;999.90;;;;;;;;;;4934297;29;20213;-69
2023/10/04 07:08:53;;;;;;;1999.90;999.90;;;;;;;;;;4936345;29;20236;-67
2023/10/04 07:11:38;;;;;;;1999.90;999.90;;;;;;;;;;4936047;29;20241;-68
2023/10/04 07:14:23;;;;;;;1999.90;999.90;;;;;;;;;;4933393;29;20281;-69
2023/10/04 07:17:09;;;;;;;1999.90;999.90;;;;;;;;;;4930625;29;20300;-68
2023/10/04 07:19:54;;;;;;;1999.90;999.90;;;;;;;;;;4928632;29;20220;-67
2023/10/04 07:22:40;;;;;;;1999.90;999.90;;;;;;;;;;4932318;29;20701;-68
2023/10/04 07:25:25;;;;;;;1999.90;999.90;;;;;;;;;;4935399;29;20261;-66
2023/10/04 07:28:11;;;;;;;1999.90;999.90;;;;;;;;;;4935393;29;20304;-68
2023/10/04 07:30:56;;;;;;;1999.90;999.90;;;;;;;;;;4934711;29;20210;-67
2023/10/04 07:33:42;;;;;;;1999.90;999.90;;;;;;;;;;4923423;29;20225;-68
2023/10/04 07:36:26;;;;;;;1999.90;999.90;;;;;;;;;;4935650;29;20222;-67
2023/10/04 07:39:15;;;;;;;1999.90;999.90;;;;;;;;;;4935562;29;20233;-68
2023/10/04 07:42:01;;;;;;;1999.90;999.90;;;;;;;;;;4929057;29;20232;-68
2023/10/04 07:44:47;;;;;;;1999.90;999.90;;;;;;;;;;4935783;29;20357;-68
2023/10/04 07:47:33;;;;;;;1999.90;999.90;;;;;;;;;;4934665;29;20844;-68
2023/10/04 07:50:23;;;;;;;1999.90;999.90;;;;;;;;;;4935563;29;20718;-67
2023/10/04 07:53:08;;;;;;;1999.90;999.90;;;;;;;;;;4933490;29;20370;-68
2023/10/04 07:55:54;;;;;;;1999.90;999.90;;;;;;;;;;4935308;29;20212;-68
2023/10/04 07:58:39;;;;;;;1999.90;999.90;;;;;;;;;;4935137;29;20289;-69
2023/10/04 08:01:24;;;;;;;1999.90;999.90;;;;;;;;;;4934924;29;20681;-68
2023/10/04 08:04:09;;;;;;;1999.90;999.90;;;;;;;;;;4935073;29;20204;-68
2023/10/04 08:06:54;;;;;;;1999.90;999.90;;;;;;;;;;4935040;29;20329;-69
2023/10/04 08:09:39;;;;;;;1999.90;999.90;;;;;;;;;;4934978;29;20422;-69
2023/10/04 08:12:26;;;;;;;1999.90;999.90;;;;;;;;;;4935046;29;20293;-69
2023/10/04 08:15:14;;;;;;;1999.90;999.90;;;;;;;;;;4934702;29;20232;-69
2023/10/04 08:18:01;;;;;;;1999.90;999.90;;;;;;;;;;4935188;29;20585;-68
2023/10/04 08:20:46;;;;;;;1999.90;999.90;;;;;;;;;;4934917;29;20237;-69
2023/10/04 08:23:31;;;;;;;1999.90;999.90;;;;;;;;;;4934770;29;20741;-69
2023/10/04 08:26:16;;;;;;;1999.90;999.90;;;;;;;;;;4934655;29;20593;-69
2023/10/04 08:29:05;;;;;;;1999.90;999.90;;;;;;;;;;4934247;29;20221;-68
2023/10/04 08:31:50;;;;;;;1999.90;999.90;;;;;;;;;;4926904;29;20356;-68
2023/10/04 08:34:35;;;;;;;1999.90;999.90;;;;;;;;;;4917432;29;20359;-69
2023/10/04 08:37:20;;;;;;;1999.90;999.90;;;;;;;;;;4934830;29;20584;-69
2023/10/04 08:40:10;;;;;;;1999.90;999.90;;;;;;;;;;4934791;29;20229;-68
2023/10/04 08:42:55;;;;;;;1999.90;999.90;;;;;;;;;;4934363;29;20270;-68
2023/10/04 08:45:42;;;;;;;1999.90;999.90;;;;;;;;;;4934658;29;20210;-69
2023/10/04 08:48:29;;;;;;;1999.90;999.90;;;;;;;;;;4933718;29;20294;-68
2023/10/04 08:51:20;;;;;;;1999.90;999.90;;;;;;;;;;4933796;29;20229;-68
2023/10/04 08:54:10;;;;;;;1999.90;999.90;;;;;;;;;;4934839;29;20253;-68
2023/10/04 08:56:57;;;;;;;1999.90;999.90;;;;;;;;;;4934494;29;20202;-68
2023/10/04 08:59:45;;;;;;;1999.90;999.90;;;;;;;;;;4935051;29;20693;-68
2023/10/04 09:02:31;;;;;;;1999.90;999.90;;;;;;;;;;4933702;29;20446;-68
2023/10/04 09:05:23;;;;;;;1999.90;999.90;;;;;;;;;;4932745;29;20697;-68
2023/10/04 09:08:10;;;;;;;1999.90;999.90;;;;;;;;;;4928478;29;20201;-68
2023/10/04 09:10:56;;;;;;;1999.90;999.90;;;;;;;;;;4934682;29;20205;-68
2023/10/04 09:13:43;;;;;;;1999.90;999.90;;;;;;;;;;4931898;29;20338;-68
2023/10/04 09:16:29;;;;;;;1999.90;999.90;;;;;;;;;;4926748;29;20739;-68
2023/10/04 09:19:17;;;;;;;1999.90;999.90;;;;;;;;;;4915697;29;20331;-68
2023/10/04 09:22:06;;;;;;;1999.90;999.90;;;;;;;;;;4915160;29;20241;-68
2023/10/04 09:24:55;;;;;;;1999.90;999.90;;;;;;;;;;4925632;29;20517;-69
2023/10/04 09:27:41;;;;;;;1999.90;999.90;;;;;;;;;;4917485;29;20233;-68
2023/10/04 09:30:26;;;;;;;1999.90;999.90;;;;;;;;;;4915515;29;20287;-68
2023/10/04 09:33:22;;;;;;;1999.90;999.90;;;;;;;;;;4915530;29;20239;-68
2023/10/04 09:36:10;;;;;;;1999.90;999.90;;;;;;;;;;4931233;29;20218;-68
2023/10/04 09:39:06;;;;;;;1999.90;999.90;;;;;;;;;;4934206;29;20697;-68
2023/10/04 09:41:54;;;;;;;1999.90;999.90;;;;;;;;;;4933638;29;20236;-68
2023/10/04 09:44:39;;;;;;;1999.90;999.90;;;;;;;;;;4933840;29;20322;-68
2023/10/04 09:47:37;;;;;;;1999.90;999.90;;;;;;;;;;4934196;29;20262;-68
2023/10/04 09:50:23;;;;;;;1999.90;999.90;;;;;;;;;;4934678;29;20585;-69
2023/10/04 09:53:09;;;;;;;1999.90;999.90;;;;;;;;;;4931568;29;20737;-68
2023/10/04 09:55:55;;;;;;;1999.90;999.90;;;;;;;;;;4935156;29;20237;-68
2023/10/04 09:58:45;;;;;;;1999.90;999.90;;;;;;;;;;4929429;29;20718;-68
2023/10/04 10:01:32;;;;;;;1999.90;999.90;;;;;;;;;;4937260;29;20225;-68
2023/10/04 10:04:18;;;;;;;1999.90;999.90;;;;;;;;;;4937712;29;20250;-70
2023/10/04 10:07:15;;;;;;;1999.90;999.90;;;;;;;;;;4937366;29;20583;-69
2023/10/04 10:10:04;;;;;;;1999.90;999.90;;;;;;;;;;4929113;29;20209;-70
2023/10/04 10:12:50;;;;;;;1999.90;999.90;;;;;;;;;;4936546;29;20947;-68
2023/10/04 10:15:37;;;;;;;1999.90;999.90;;;;;;;;;;4936704;29;20276;-69
2023/10/04 10:18:23;;;;;;;1999.90;999.90;;;;;;;;;;4935015;29;20229;-69
2023/10/04 10:21:08;;;;;;;1999.90;999.90;;;;;;;;;;4926602;29;20601;-69
2023/10/04 10:23:57;;;;;;;1999.90;999.90;;;;;;;;;;4930020;29;20803;-68
2023/10/04 10:26:43;;;;;;;1999.90;999.90;;;;;;;;;;4929446;29;20941;-69
2023/10/04 10:29:30;;;;;;;1999.90;999.90;;;;;;;;;;4931505;29;20339;-70
2023/10/04 10:32:17;;;;;;;1999.90;999.90;;;;;;;;;;4930294;29;20234;-70
2023/10/04 10:35:04;;;;;;;1999.90;999.90;;;;;;;;;;4926019;29;20210;-69
2023/10/04 10:37:49;;;;;;;1999.90;999.90;;;;;;;;;;4925312;29;20424;-67
2023/10/04 10:40:35;;;;;;;1999.90;999.90;;;;;;;;;;4928552;29;20424;-69
2023/10/04 10:43:21;;;;;;;1999.90;999.90;;;;;;;;;;4931768;29;20708;-68
2023/10/04 10:46:21;;;;;;;1999.90;999.90;;;;;;;;;;4929036;29;20712;-69
2023/10/04 10:49:08;;;;;;;1999.90;999.90;;;;;;;;;;4936298;29;20206;-68
2023/10/04 10:51:54;;;;;;;1999.90;999.90;;;;;;;;;;4936155;29;20744;-68
2023/10/04 10:54:39;;;;;;;1999.90;999.90;;;;;;;;;;4936107;29;20707;-69
2023/10/04 10:57:28;;;;;;;1999.90;999.90;;;;;;;;;;4931319;29;20217;-69
2023/10/04 11:00:19;;;;;;;1999.90;999.90;;;;;;;;;;4933735;29;20217;-68
2023/10/04 11:03:05;;;;;;;1999.90;999.90;;;;;;;;;;4933120;29;20627;-68
2023/10/04 11:05:50;;;;;;;1999.90;999.90;;;;;;;;;;4933762;29;20221;-69
2023/10/04 11:08:35;;;;;;;1999.90;999.90;;;;;;;;;;4937120;29;20214;-69
2023/10/04 11:11:21;;;;;;;1999.90;999.90;;;;;;;;;;4943293;28;20237;-69
2023/10/04 11:14:06;;;;;;;1999.90;999.90;;;;;;;;;;4941256;29;20209;-69
2023/10/04 11:16:52;;;;;;;1999.90;999.90;;;;;;;;;;4949820;29;20696;-71
2023/10/04 11:19:37;;;;;;;1999.90;999.90;;;;;;;;;;4943762;29;20205;-71
2023/10/04 11:22:23;;;;;;;1999.90;999.90;;;;;;;;;;4946412;28;20970;-71
2023/10/04 11:25:11;;;;;;;1999.90;999.90;;;;;;;;;;4955664;29;20220;-71
2023/10/04 11:27:56;;;;;;;1999.90;999.90;;;;;;;;;;4953141;29;20920;-71
2023/10/04 11:30:41;;;;;;;1999.90;999.90;;;;;;;;;;4955843;29;20213;-70
2023/10/04 11:33:27;;;;;;;1999.90;999.90;;;;;;;;;;4955573;29;20368;-72
2023/10/04 11:36:19;;;;;;;1999.90;999.90;;;;;;;;;;4955343;29;20272;-72
2023/10/04 11:39:07;;;;;;;1999.90;999.90;;;;;;;;;;4955609;29;20317;-72
2023/10/04 11:41:52;;;;;;;1999.90;999.90;;;;;;;;;;4955258;28;20228;-71
2023/10/04 11:44:42;;;;;;;1999.90;999.90;;;;;;;;;;4955011;29;20216;-72
2023/10/04 11:47:28;;;;;;;1999.90;999.90;;;;;;;;;;4954615;29;20228;-72
2023/10/04 11:50:15;;;;;;;1999.90;999.90;;;;;;;;;;4954942;29;20429;-72
2023/10/04 11:53:00;;;;;;;1999.90;999.90;;;;;;;;;;4954954;28;20223;-72
2023/10/04 11:55:45;;;;;;;1999.90;999.90;;;;;;;;;;4954664;29;20252;-71
2023/10/04 11:58:30;;;;;;;1999.90;999.90;;;;;;;;;;4954791;29;20571;-71
2023/10/04 12:01:16;;;;;;;1999.90;999.90;;;;;;;;;;4954722;28;20229;-72
2023/10/04 12:04:02;;;;;;;1999.90;999.90;;;;;;;;;;4954720;29;20244;-71
2023/10/04 12:06:57;;;;;;;1999.90;999.90;;;;;;;;;;4954686;29;20259;-71
2023/10/04 12:09:42;;;;;;;1999.90;999.90;;;;;;;;;;4954707;29;20244;-71
2023/10/04 12:12:27;;;;;;;1999.90;999.90;;;;;;;;;;4954428;28;20231;-71
2023/10/04 12:15:14;;;;;;;1999.90;999.90;;;;;;;;;;4954474;29;20202;-71
2023/10/04 12:17:58;;;;;;;1999.90;999.90;;;;;;;;;;4954491;28;20581;-71
2023/10/04 12:20:44;;;;;;;1999.90;999.90;;;;;;;;;;4954214;29;20212;-71
2023/10/04 12:23:32;;;;;;;1999.90;999.90;;;;;;;;;;4954557;29;20201;-70
2023/10/04 12:26:20;;;;;;;1999.90;999.90;;;;;;;;;;4954308;29;20331;-71
2023/10/04 12:29:07;;;;;;;1999.90;999.90;;;;;;;;;;4954661;29;20212;-71
2023/10/04 12:31:53;;;;;;;1999.90;999.90;;;;;;;;;;4954083;28;20224;-71
2023/10/04 12:34:38;;;;;;;1999.90;999.90;;;;;;;;;;4954395;29;20290;-70
2023/10/04 12:37:23;;;;;;;1999.90;999.90;;;;;;;;;;4954233;29;20217;-71
2023/10/04 12:40:17;;;;;;;1999.90;999.90;;;;;;;;;;4954228;29;20809;-71
2023/10/04 12:43:02;;;;;;;1999.90;999.90;;;;;;;;;;4953895;28;20265;-70
2023/10/04 12:45:47;;;;;;;1999.90;999.90;;;;;;;;;;4954033;29;20208;-71
2023/10/04 12:48:32;;;;;;;1999.90;999.90;;;;;;;;;;4954363;29;20217;-69
2023/10/04 12:51:16;;;;;;;1999.90;999.90;;;;;;;;;;4954119;28;20228;-70
2023/10/04 12:54:02;;;;;;;1999.90;999.90;;;;;;;;;;4953862;29;20638;-70
2023/10/04 12:56:50;;;;;;;1999.90;999.90;;;;;;;;;;4953858;29;20569;-71
2023/10/04 12:59:35;;;;;;;1999.90;999.90;;;;;;;;;;4954142;29;20253;-71
2023/10/04 13:02:22;;;;;;;1999.90;999.90;;;;;;;;;;4953848;28;20223;-71
2023/10/04 13:05:07;;;;;;;1999.90;999.90;;;;;;;;;;4952920;29;20408;-71
2023/10/04 13:07:52;;;;;;;1999.90;999.90;;;;;;;;;;4954274;29;20216;-71
2023/10/04 13:10:38;;;;;;;1999.90;999.90;;;;;;;;;;4954182;29;20280;-71
2023/10/04 13:13:25;;;;;;;1999.90;999.90;;;;;;;;;;4954414;29;20621;-71
2023/10/04 13:16:10;;;;;;;1999.90;999.90;;;;;;;;;;4953680;29;20282;-70
2023/10/04 13:18:55;;;;;;;1999.90;999.90;;;;;;;;;;4953969;29;20244;-72
2023/10/04 13:21:40;;;;;;;1999.90;999.90;;;;;;;;;;4953637;28;20276;-71
2023/10/04 13:24:26;;;;;;;1999.90;999.90;;;;;;;;;;4954018;29;20228;-71
2023/10/04 13:27:11;;;;;;;1999.90;999.90;;;;;;;;;;4953683;29;20317;-71
2023/10/04 13:29:57;;;;;;;1999.90;999.90;;;;;;;;;;4955548;28;20746;-71
2023/10/04 13:32:45;;;;;;;1999.90;999.90;;;;;;;;;;4939931;29;20306;-69
2023/10/04 13:35:30;;;;;;;1999.90;999.90;;;;;;;;;;4943962;29;20204;-72
2023/10/04 13:38:17;;;;;;;1999.90;999.90;;;;;;;;;;4937285;29;20222;-71
2023/10/04 13:41:01;;;;;;;1999.90;999.90;;;;;;;;;;4936759;29;20284;-71
2023/10/04 13:43:49;;;;;;;1999.90;999.90;;;;;;;;;;4950736;29;20233;-71
2023/10/04 13:46:36;;;;;;;1999.90;999.90;;;;;;;;;;4932002;29;20209;-71
2023/10/04 13:49:21;;;;;;;1999.90;999.90;;;;;;;;;;4937995;29;20204;-71
2023/10/04 13:52:06;;;;;;;1999.90;999.90;;;;;;;;;;4937907;29;20229;-71
2023/10/04 13:54:51;;;;;;;1999.90;999.90;;;;;;;;;;4943761;29;20421;-71
2023/10/04 13:57:38;;;;;;;1999.90;999.90;;;;;;;;;;4937365;29;20349;-73
2023/10/04 14:00:23;;;;;;;1999.90;999.90;;;;;;;;;;4957115;29;20204;-71
2023/10/04 14:03:09;;;;;;;1999.90;999.90;;;;;;;;;;4948492;28;20699;-71
2023/10/04 14:06:00;;;;;;;1999.90;999.90;;;;;;;;;;4948722;29;20299;-70
2023/10/04 14:08:45;;;;;;;1999.90;999.90;;;;;;;;;;4941819;29;20209;-70
2023/10/04 14:11:30;;;;;;;1999.90;999.90;;;;;;;;;;4930728;29;20254;-71
2023/10/04 14:14:15;;;;;;;1999.90;999.90;;;;;;;;;;4937605;29;20704;-71
2023/10/04 14:17:05;;;;;;;1999.90;999.90;;;;;;;;;;4937465;29;20301;-69
2023/10/04 14:19:51;;;;;;;1999.90;999.90;;;;;;;;;;4937556;29;20803;-70
2023/10/04 14:22:36;;;;;;;1999.90;999.90;;;;;;;;;;4937357;29;20265;-67
2023/10/04 14:25:21;;;;;;;1999.90;999.90;;;;;;;;;;4937309;29;20209;-70
2023/10/04 14:28:06;;;;;;;1999.90;999.90;;;;;;;;;;4937346;29;20209;-71
2023/10/04 14:30:51;;;;;;;1999.90;999.90;;;;;;;;;;4937142;29;20213;-70
2023/10/04 14:33:36;;;;;;;1999.90;999.90;;;;;;;;;;4937414;29;20208;-70
2023/10/04 14:36:22;;;;;;;1999.90;999.90;;;;;;;;;;4936799;29;20213;-70
2023/10/04 14:39:08;;;;;;;1999.90;999.90;;;;;;;;;;4937091;29;20281;-70
2023/10/04 14:41:53;;;;;;;1999.90;999.90;;;;;;;;;;4935874;29;20300;-71
2023/10/04 14:44:38;;;;;;;1999.90;999.90;;;;;;;;;;4937170;29;20213;-72
2023/10/04 14:47:23;;;;;;;1999.90;999.90;;;;;;;;;;4936794;29;20213;-72
2023/10/04 14:50:09;;;;;;;1999.90;999.90;;;;;;;;;;4937263;29;20333;-71
2023/10/04 14:52:55;;;;;;;1999.90;999.90;;;;;;;;;;4934832;29;20240;-71
2023/10/04 14:55:40;;;;;;;1999.90;999.90;;;;;;;;;;4926240;29;20225;-70
2023/10/04 14:58:25;;;;;;;1999.90;999.90;;;;;;;;;;4934254;29;20286;-72
2023/10/04 15:01:12;;;;;;;1999.90;999.90;;;;;;;;;;4936411;29;20604;-71
2023/10/04 15:03:58;;;;;;;1999.90;999.90;;;;;;;;;;4935013;29;20301;-71
2023/10/04 15:06:43;;;;;;;1999.90;999.90;;;;;;;;;;4930345;29;20424;-71
2023/10/04 15:09:29;;;;;;;1999.90;999.90;;;;;;;;;;4935569;29;20213;-71
2023/10/04 15:12:14;;;;;;;1999.90;999.90;;;;;;;;;;4926995;29;20753;-71
2023/10/04 15:15:00;;;;;;;1999.90;999.90;;;;;;;;;;4933090;29;20213;-72
2023/10/04 15:17:46;;;;;;;1999.90;999.90;;;;;;;;;;4917413;29;20270;-71
2023/10/04 15:20:31;;;;;;;1999.90;999.90;;;;;;;;;;4925190;29;20577;-71
2023/10/04 15:23:16;;;;;;;1999.90;999.90;;;;;;;;;;4922217;29;20233;-71
2023/10/04 15:26:04;;;;;;;1999.90;999.90;;;;;;;;;;4935740;29;20209;-71
2023/10/04 15:28:49;;;;;;;1999.90;999.90;;;;;;;;;;4936127;29;20567;-71
2023/10/04 15:31:34;;;;;;;1999.90;999.90;;;;;;;;;;4928851;29;20935;-71
2023/10/04 15:34:19;;;;;;;1999.90;999.90;;;;;;;;;;4928332;29;20238;-70
2023/10/04 15:37:04;;;;;;;1999.90;999.90;;;;;;;;;;4935563;29;20257;-72
2023/10/04 15:39:49;;;;;;;1999.90;999.90;;;;;;;;;;4935962;29;20209;-71
2023/10/04 15:42:35;;;;;;;1999.90;999.90;;;;;;;;;;4935876;29;20349;-72
2023/10/04 15:45:22;;;;;;;1999.90;999.90;;;;;;;;;;4935796;29;20225;-71
2023/10/04 15:48:11;;;;;;;1999.90;999.90;;;;;;;;;;4935974;29;20334;-71
2023/10/04 15:50:56;;;;;;;1999.90;999.90;;;;;;;;;;4935673;29;20205;-72
2023/10/04 15:53:44;;;;;;;1999.90;999.90;;;;;;;;;;4935167;29;20209;-71
2023/10/04 15:56:29;;;;;;;1999.90;999.90;;;;;;;;;;4933185;29;20206;-70
2023/10/04 15:59:15;;;;;;;1999.90;999.90;;;;;;;;;;4929323;29;20225;-70
2023/10/04 16:02:00;;;;;;;1999.90;999.90;;;;;;;;;;4934506;29;20741;-69
2023/10/04 16:04:45;;;;;;;1999.90;999.90;;;;;;;;;;4933410;29;20333;-69
2023/10/04 16:07:30;;;;;;;1999.90;999.90;;;;;;;;;;4916803;29;20326;-70
2023/10/04 16:10:17;;;;;;;1999.90;999.90;;;;;;;;;;4931923;29;20213;-71
2023/10/04 16:13:02;;;;;;;1999.90;999.90;;;;;;;;;;4922180;29;20240;-71
2023/10/04 16:15:49;;;;;;;1999.90;999.90;;;;;;;;;;4924014;29;20782;-71
2023/10/04 16:18:34;;;;;;;1999.90;999.90;;;;;;;;;;4926206;29;20217;-71
2023/10/04 16:21:19;;;;;;;1999.90;999.90;;;;;;;;;;4926194;29;20351;-70
2023/10/04 16:24:05;;;;;;;1999.90;999.90;;;;;;;;;;4930843;29;20257;-71
2023/10/04 16:26:50;;;;;;;1999.90;999.90;;;;;;;;;;4927262;29;20205;-70
2023/10/04 16:29:35;;;;;;;1999.90;999.90;;;;;;;;;;4927143;29;20216;-70
2023/10/04 16:32:25;;;;;;;1999.90;999.90;;;;;;;;;;4933917;29;20764;-72
2023/10/04 16:35:11;;;;;;;1999.90;999.90;;;;;;;;;;4931435;29;20217;-72
2023/10/04 16:37:56;;;;;;;1999.90;999.90;;;;;;;;;;4928828;29;20217;-70
2023/10/04 16:40:41;;;;;;;1999.90;999.90;;;;;;;;;;4929443;29;20289;-71
2023/10/04 16:43:26;;;;;;;1999.90;999.90;;;;;;;;;;4930630;29;20349;-71
2023/10/04 16:46:12;;;;;;;1999.90;999.90;;;;;;;;;;4933808;29;20413;-71
2023/10/04 16:48:58;;;;;;;1999.90;999.90;;;;;;;;;;4929389;29;20672;-71
2023/10/04 16:51:43;;;;;;;1999.90;999.90;;;;;;;;;;4933564;29;20728;-71
2023/10/04 16:54:28;;;;;;;1999.90;999.90;;;;;;;;;;4930454;29;20215;-68
2023/10/04 16:57:13;;;;;;;1999.90;999.90;;;;;;;;;;4930666;29;20224;-72
2023/10/04 16:59:58;;;;;;;1999.90;999.90;;;;;;;;;;4927072;29;20575;-72
2023/10/04 17:02:44;;;;;;;1999.90;999.90;;;;;;;;;;4931279;29;20229;-71
2023/10/04 17:05:30;;;;;;;1999.90;999.90;;;;;;;;;;4931836;29;20219;-72
2023/10/04 17:08:16;;;;;;;1999.90;999.90;;;;;;;;;;4924024;29;20224;-71
2023/10/04 17:11:01;;;;;;;1999.90;999.90;;;;;;;;;;4934364;29;20300;-71
2023/10/04 17:13:45;;;;;;;1999.90;999.90;;;;;;;;;;4927295;29;20239;-71
2023/10/04 17:16:30;;;;;;;1999.90;999.90;;;;;;;;;;4926493;29;20286;-71
2023/10/04 17:19:15;;;;;;;1999.90;999.90;;;;;;;;;;4934078;29;20640;-71
2023/10/04 17:22:01;;;;;;;1999.90;999.90;;;;;;;;;;4928676;29;20729;-72
2023/10/04 17:24:46;;;;;;;1999.90;999.90;;;;;;;;;;4927038;29;20607;-71
2023/10/04 17:27:31;;;;;;;1999.90;999.90;;;;;;;;;;4932064;29;20741;-71
2023/10/04 17:30:20;;;;;;;1999.90;999.90;;;;;;;;;;4930656;29;20363;-72
2023/10/04 17:33:05;;;;;;;1999.90;999.90;;;;;;;;;;4934519;29;20241;-71
2023/10/04 17:35:50;;;;;;;1999.90;999.90;;;;;;;;;;4929728;29;20496;-72
2023/10/04 17:38:36;;;;;;;1999.90;999.90;;;;;;;;;;4930186;29;20285;-72
2023/10/04 17:41:21;;;;;;;1999.90;999.90;;;;;;;;;;4925669;29;20724;-71
2023/10/04 17:44:07;;;;;;;1999.90;999.90;;;;;;;;;;4920640;29;20244;-71
2023/10/04 17:46:52;;;;;;;1999.90;999.90;;;;;;;;;;4927519;29;20213;-71
2023/10/04 17:49:36;;;;;;;1999.90;999.90;;;;;;;;;;4923883;29;20214;-71
2023/10/04 17:52:22;;;;;;;1999.90;999.90;;;;;;;;;;4914944;29;20225;-72
2023/10/04 17:55:10;;;;;;;1999.90;999.90;;;;;;;;;;4933448;29;20208;-71
2023/10/04 17:57:55;;;;;;;1999.90;999.90;;;;;;;;;;4933881;29;20342;-71
2023/10/04 18:00:40;;;;;;;1999.90;999.90;;;;;;;;;;4932897;29;20784;-70
2023/10/04 18:03:25;;;;;;;1999.90;999.90;;;;;;;;;;4931396;29;20784;-71
2023/10/04 18:06:10;;;;;;;1999.90;999.90;;;;;;;;;;4928836;29;20710;-71
2023/10/04 18:08:55;;;;;;;1999.90;999.90;;;;;;;;;;4927751;29;20209;-70
2023/10/04 18:11:42;;;;;;;1999.90;999.90;;;;;;;;;;4929285;29;20250;-71
2023/10/04 18:14:27;;;;;;;1999.90;999.90;;;;;;;;;;4932133;29;20330;-69
2023/10/04 18:17:12;;;;;;;1999.90;999.90;;;;;;;;;;4937231;29;20209;-70
2023/10/04 18:19:57;;;;;;;1999.90;999.90;;;;;;;;;;4936422;29;20213;-71
2023/10/04 18:22:43;;;;;;;1999.90;999.90;;;;;;;;;;4926977;29;20229;-71
2023/10/04 18:25:28;;;;;;;1999.90;999.90;;;;;;;;;;4936327;29;20288;-70
2023/10/04 18:28:15;;;;;;;1999.90;999.90;;;;;;;;;;4936603;29;20664;-70
2023/10/04 18:30:59;;;;;;;1999.90;999.90;;;;;;;;;;4931022;29;20213;-71
2023/10/04 18:33:45;;;;;;;1999.90;999.90;;;;;;;;;;4935302;29;20664;-70
2023/10/04 18:36:31;;;;;;;1999.90;999.90;;;;;;;;;;4928672;29;20217;-70
2023/10/04 18:39:18;;;;;;;1999.90;999.90;;;;;;;;;;4937027;29;20289;-70